Volcan Mountain (221) Station Data

Red Flag Warning: No
Fire Weather Zone: 258
SDGE Region: Ramona
Lat/Lon: 33.103/-116.58

Observations

Time Wind Speed/Gust Temp(F) RH Fuel Moist Fuel Temp(F) Dewpt(F) Tmax(F) Tmin(F) Accum Precip 10-min Precip SL Press(mb)
4/29 11:50pm 229 4 G 5 54° 16% - - 10° 59° 42.8° - - 1019.0
4/29 11:40pm 234 3 G 4 54° 18% - - 11° 59° 42.8° - - 1019.0
4/29 11:30pm 236 4 G 5 54° 18% - - 11° 59° 42.8° - - 1019.0
4/29 11:20pm 257 3 G 4 53° 20% - - 13° 59° 42.8° - - 1019.0
4/29 11:10pm 243 4 G 7 54° 19% - - 12° 59° 42.8° - - 1019.0
4/29 11:00pm 243 4 G 6 54° 19% - - 13° 59° 42.8° - - 1019.0
4/29 10:50pm 254 3 G 5 53° 22% - - 15° 59° 42.8° - - 1019.0
4/29 10:40pm 262 4 G 5 53° 22% - - 16° 59° 42.8° - - 1019.0
4/29 10:30pm 256 3 G 6 53° 23% - - 16° 59° 42.8° - - 1019.0
4/29 10:20pm 259 3 G 4 53° 24% - - 17° 59° 42.8° - - 1019.0
4/29 10:10pm 258 2 G 3 54° 24% - - 17° 59° 42.8° - - 1019.0
4/29 10:00pm 249 2 G 3 54° 23% - - 17° 59° 42.8° - - 1019.0
4/29 9:50pm 271 2 G 4 53° 26% - - 19° 59° 42.8° - - 1019.0
4/29 9:40pm 254 3 G 4 53° 28% - - 20° 59° 42.8° - - 1019.0
4/29 9:30pm 249 3 G 6 53° 27% - - 20° 59° 42.8° - - 1018.0
4/29 9:20pm 248 3 G 4 53° 25% - - 18° 59° 42.8° - - 1018.0
4/29 9:10pm 241 3 G 5 54° 24% - - 18° 59° 42.8° - - 1018.0
4/29 9:00pm 243 3 G 4 54° 22% - - 16° 59° 42.8° - - 1018.0
4/29 8:50pm 248 3 G 7 53° 23% - - 16° 59° 42.8° - - 1018.0
4/29 8:40pm 255 3 G 6 53° 25% - - 18° 59° 42.8° - - 1018.0
4/29 8:30pm 260 3 G 5 53° 25% - - 18° 59° 42.8° - - 1018.0
4/29 8:20pm 279 4 G 6 52° 29% - - 20° 59° 42.8° - - 1018.0
4/29 8:10pm 261 5 G 7 51° 31% - - 22° 59° 42.8° - - 1018.0
4/29 8:00pm 278 4 G 6 51° 32% - - 22° 59° 42.8° - - 1018.0
4/29 7:50pm 261 5 G 8 52° 32% - - 23° 59° 42.8° - - 1018.0
4/29 7:40pm 255 7 G 10 52° 32% - - 23° 59° 42.8° - - 1017.0
4/29 7:30pm 250 9 G 13 53° 31% - - 23° 59° 42.8° - - 1017.0
4/29 7:20pm 264 5 G 9 55° 29% - - 23° 59° 42.8° - - 1016.0
4/29 7:10pm 272 5 G 9 56° 28% - - 23° 59° 42.8° - - 1016.0
4/29 7:00pm 270 3 G 8 58° 22% - - 19° 59° 42.8° - - 1015.0
4/29 6:50pm 192 2 G 5 58° 16% - - 11° 59° 42.8° - - 1015.0
4/29 6:40pm 141 2 G 4 57° 15% - - 58.8° 42.8° - - 1015.0
4/29 6:30pm 117 3 G 5 57° 14% - - 58.8° 42.8° - - 1015.0
4/29 6:20pm 104 3 G 6 57° 15% - - 10° 58.8° 42.8° - - 1015.0
4/29 6:10pm 96 4 G 8 57° 15% - - 10° 58.8° 42.8° - - 1015.0
4/29 6:00pm 98 4 G 7 57° 16% - - 11° 58.8° 42.8° - - 1015.0
4/29 5:50pm 91 5 G 9 57° 16% - - 11° 58.8° 42.8° - - 1015.0
4/29 5:40pm 106 6 G 10 57° 14% - - 58.8° 42.8° - - 1015.0
4/29 5:30pm 99 8 G 13 57° 15% - - 10° 58.8° 42.8° - - 1015.0
4/29 5:20pm 88 7 G 10 57° 15% - - 10° 58.8° 42.8° - - 1015.0
4/29 5:10pm 95 9 G 14 57° 14% - - 58.8° 42.8° - - 1015.0
4/29 5:00pm 96 9 G 14 57° 15% - - 10° 58.8° 42.8° - - 1015.0
4/29 4:50pm 92 9 G 16 57° 15% - - 10° 58.8° 42.8° - - 1015.0
4/29 4:40pm 101 7 G 11 58° 15% - - 11° 58.8° 42.8° - - 1015.0
4/29 4:30pm 84 6 G 12 58° 15% - - 11° 58.8° 42.8° - - 1015.0
4/29 4:20pm 91 10 G 13 57° 14% - - 58.8° 42.8° - - 1015.0
4/29 4:10pm 83 6 G 13 58° 15% - - 10° 58.8° 42.8° - - 1015.0
4/29 4:00pm 94 8 G 15 58° 15% - - 11° 58.5° 42.8° - - 1015.0
4/29 3:50pm 88 8 G 14 57° 15% - - 10° 58.2° 42.8° - - 1015.0
4/29 3:40pm 85 10 G 16 57° 15% - - 10° 58.2° 42.8° - - 1015.0
4/29 3:30pm 99 8 G 17 57° 14% - - 58.1° 42.8° - - 1015.0
4/29 3:20pm 97 12 G 20 57° 14% - - 58.1° 42.8° - - 1015.0
4/29 3:10pm 88 12 G 22 57° 15% - - 10° 58° 42.8° - - 1015.0
4/29 3:00pm 98 10 G 18 57° 15% - - 57.9° 42.8° - - 1015.0
4/29 2:50pm 99 12 G 19 57° 15% - - 10° 57.9° 42.8° - - 1015.0
4/29 2:40pm 98 10 G 18 56° 15% - - 57.9° 42.8° - - 1015.0
4/29 2:30pm 91 12 G 22 57° 15% - - 10° 57.9° 42.8° - - 1015.0
4/29 2:20pm 95 14 G 21 56° 15% - - 57.8° 42.8° - - 1015.0
4/29 2:10pm 90 10 G 16 57° 16% - - 11° 57.8° 42.8° - - 1015.0
4/29 2:00pm 100 11 G 24 56° 16% - - 10° 57.7° 42.8° - - 1015.0
4/29 1:50pm 97 13 G 24 56° 16% - - 10° 57.7° 42.8° - - 1015.0
4/29 1:40pm 89 10 G 18 56° 15% - - 57.4° 42.8° - - 1015.0
4/29 1:30pm 96 14 G 21 55° 15% - - 57.4° 42.8° - - 1015.0
4/29 1:20pm 95 14 G 21 56° 15% - - 57.4° 42.8° - - 1015.0
4/29 1:10pm 86 9 G 18 56° 16% - - 11° 56.6° 42.8° - - 1015.0
4/29 1:00pm 93 12 G 20 55° 17% - - 10° 56.2° 42.8° - - 1015.0
4/29 12:50pm 97 13 G 21 55° 15% - - 56.2° 42.8° - - 1015.0
4/29 12:40pm 94 14 G 21 55° 16% - - 10° 56.2° 42.8° - - 1015.0
4/29 12:30pm 91 15 G 24 55° 16% - - 56.2° 42.8° - - 1015.0
4/29 12:20pm 91 16 G 26 53° 15% - - 55° 42.8° - - 1016.0
4/29 12:10pm 99 18 G 24 54° 15% - - 55° 42.8° - - 1016.0
4/29 12:00pm 98 19 G 29 53° 16% - - 54.4° 42.8° - - 1016.0
4/29 11:50am 100 19 G 26 53° 17% - - 53.8° 42.8° - - 1016.0
4/29 11:40am 97 19 G 26 53° 17% - - 53.8° 42.8° - - 1016.0
4/29 11:30am 96 20 G 30 52° 18% - - 11° 53.4° 42.8° - - 1016.0
4/29 11:20am 98 20 G 30 52° 19% - - 11° 53° 42.8° - - 1016.0
4/29 11:10am 98 20 G 30 51° 19% - - 10° 52.6° 42.8° - - 1016.0
4/29 11:00am 94 24 G 34 51° 18% - - 51.9° 42.8° - - 1016.0
4/29 10:50am 94 23 G 33 51° 18% - - 51.9° 42.8° - - 1015.0
4/29 10:40am 97 24 G 31 51° 17% - - 51.9° 42.8° - - 1015.0
4/29 10:30am 99 23 G 32 51° 18% - - 51.9° 42.8° - - 1016.0
4/29 10:20am 97 23 G 31 51° 19% - - 10° 51.9° 42.8° - - 1015.0
4/29 10:10am 97 23 G 32 51° 18% - - 51.8° 42.8° - - 1015.0
4/29 10:00am 94 22 G 33 50° 18% - - 51° 42.8° - - 1015.0
4/29 9:50am 95 22 G 30 50° 18% - - 50.9° 42.8° - - 1016.0
4/29 9:40am 96 21 G 28 50° 18% - - 50.7° 42.8° - - 1016.0
4/29 9:30am 93 21 G 27 49° 18% - - 50.3° 42.8° - - 1016.0
4/29 9:20am 93 21 G 29 49° 18% - - 50.3° 42.8° - - 1016.0
4/29 9:10am 92 21 G 28 48° 18% - - 50.3° 42.8° - - 1016.0
4/29 9:00am 92 20 G 29 49° 19% - - 50.3° 42.8° - - 1016.0
4/29 8:50am 92 21 G 26 48° 19% - - 50.3° 42.8° - - 1016.0
4/29 8:40am 92 23 G 28 48° 19% - - 50.3° 42.8° - - 1016.0
4/29 8:30am 82 21 G 28 48° 20% - - 50.3° 42.8° - - 1015.0
4/29 8:20am 78 21 G 30 48° 20% - - 50.3° 42.8° - - 1015.0
4/29 8:10am 74 21 G 30 47° 20% - - 50.3° 42.8° - - 1016.0
4/29 8:00am 88 22 G 26 46° 19% - - 50.3° 42.8° - - 1016.0
4/29 7:50am 86 22 G 27 46° 21% - - 50.3° 42.8° - - 1016.0
4/29 7:40am 88 23 G 27 46° 20% - - 50.3° 42.8° - - 1016.0
4/29 7:30am 87 21 G 27 46° 20% - - 50.3° 42.8° - - 1016.0
4/29 7:20am 87 22 G 27 46° 20% - - 50.3° 42.8° - - 1016.0
4/29 7:10am 79 24 G 30 46° 20% - - 50.3° 42.8° - - 1015.0
4/29 7:00am 78 23 G 27 45° 21% - - 50.3° 42.8° - - 1016.0
4/29 6:50am 80 22 G 26 45° 21% - - 50.3° 42.8° - - 1016.0
4/29 6:40am 79 20 G 26 45° 22% - - 50.3° 42.8° - - 1016.0
4/29 6:30am 70 18 G 23 44° 21% - - 50.3° 42.8° - - 1016.0
4/29 6:20am 72 20 G 24 44° 21% - - 50.3° 42.8° - - 1016.0
4/29 6:10am 70 22 G 29 44° 20% - - 50.3° 42.8° - - 1015.0
4/29 6:00am 69 20 G 24 43° 22% - - 50.3° 42.8° - - 1016.0
4/29 5:50am 73 20 G 25 44° 22% - - 50.3° 43° - - 1015.0
4/29 5:40am 73 19 G 25 44° 22% - - 50.3° 43.5° - - 1015.0
4/29 5:30am 72 18 G 24 44° 22% - - 50.3° 43.5° - - 1015.0
4/29 5:20am 78 19 G 25 44° 22% - - 50.3° 43.7° - - 1015.0
4/29 5:10am 72 20 G 26 44° 22% - - 50.3° 43.7° - - 1015.0
4/29 5:00am 77 20 G 24 44° 22% - - 50.3° 44° - - 1015.0
4/29 4:50am 73 19 G 24 45° 21% - - 50.3° 44° - - 1015.0
4/29 4:40am 76 19 G 24 45° 22% - - 50.3° 44° - - 1015.0
4/29 4:30am 80 19 G 23 45° 21% - - 50.3° 44.4° - - 1015.0
4/29 4:20am 78 20 G 23 45° 22% - - 50.3° 44.6° - - 1014.0
4/29 4:10am 78 20 G 26 46° 22% - - 50.3° 45.1° - - 1014.0
4/29 4:00am 78 19 G 23 46° 22% - - 50.3° 45.1° - - 1014.0
4/29 3:50am 82 19 G 24 46° 22% - - 50.3° 45.1° - - 1014.0
4/29 3:40am 70 18 G 24 46° 22% - - 50.3° 45.1° - - 1014.0
4/29 3:30am 72 16 G 22 46° 23% - - 10° 50.3° 45.3° - - 1014.0
4/29 3:20am 68 18 G 22 46° 22% - - 10° 50.3° 45.7° - - 1014.0
4/29 3:10am 72 16 G 23 46° 22% - - 10° 50.3° 45.8° - - 1014.0
4/29 3:00am 64 19 G 23 47° 22% - - 10° 50.3° 46.2° - - 1013.0
4/29 2:50am 63 19 G 23 47° 21% - - 10° 50.3° 46.6° - - 1013.0
4/29 2:40am 61 19 G 25 47° 21% - - 10° 50.3° 46.6° - - 1013.0
4/29 2:30am 64 17 G 21 47° 21% - - 50.3° 46.7° - - 1013.0
4/29 2:20am 66 18 G 23 47° 21% - - 50.3° 46.7° - - 1013.0
4/29 2:10am 64 18 G 23 48° 21% - - 50.3° 47.2° - - 1013.0
4/29 2:00am 69 16 G 20 48° 20% - - 50.3° 47.3° - - 1013.0
4/29 1:50am 75 15 G 20 48° 20% - - 50.3° 47.6° - - 1013.0
4/29 1:40am 77 15 G 19 48° 20% - - 50.3° 47.6° - - 1013.0
4/29 1:30am 75 17 G 21 48° 20% - - 50.3° 47.6° - - 1013.0
4/29 1:20am 76 17 G 21 48° 21% - - 10° 50.3° 47.6° - - 1013.0
4/29 1:10am 80 16 G 21 48° 23% - - 12° 50.3° 47.7° - - 1013.0
4/29 1:00am 77 14 G 18 48° 27% - - 16° 50.3° 47.8° - - 1013.0
4/29 12:50am 81 15 G 20 49° 28% - - 18° 50.3° 48.2° - - 1012.0
4/29 12:40am 80 15 G 18 49° 31% - - 20° 50.3° 48.6° - - 1012.0
4/29 12:30am 80 15 G 18 49° 34% - - 22° 50.3° 48.6° - - 1012.0
4/29 12:20am 84 14 G 19 49° 33% - - 21° 50.3° 48.7° - - 1012.0
4/29 12:10am 84 17 G 24 50° 33% - - 22° 50.3° 49.1° - - 1012.0
4/29 12:00am 76 14 G 20 50° 29% - - 19° 62.3° 42.3° - - 1012.0
4/28 11:50pm 72 13 G 18 50° 26% - - 17° 62.3° 42.3° - - 1011.0
4/28 11:40pm 67 13 G 19 51° 26% - - 17° 62.3° 42.3° - - 1011.0
4/28 11:30pm 58 13 G 18 51° 25% - - 16° 62.3° 42.3° - - 1011.0
4/28 11:20pm 57 13 G 19 51° 27% - - 18° 62.3° 42.3° - - 1011.0
4/28 11:10pm 59 12 G 17 51° 34% - - 24° 62.3° 42.3° - - 1011.0
4/28 11:00pm 66 12 G 16 51° 36% - - 25° 62.3° 42.3° - - 1011.0
4/28 10:50pm 62 11 G 14 52° 39% - - 27° 62.3° 42.3° - - 1011.0
4/28 10:40pm 65 12 G 15 52° 41% - - 29° 62.3° 42.3° - - 1010.0
4/28 10:30pm 58 12 G 17 51° 48% - - 33° 62.3° 42.3° - - 1011.0
4/28 10:20pm 52 11 G 16 52° 50% - - 34° 62.3° 42.3° - - 1011.0
4/28 10:10pm 55 11 G 15 52° 51% - - 34° 62.3° 42.3° - - 1010.0
4/28 10:00pm 50 11 G 19 52° 53% - - 35° 62.3° 42.3° - - 1010.0
4/28 9:50pm 43 9 G 13 52° 54% - - 36° 62.3° 42.3° - - 1010.0
4/28 9:40pm 53 7 G 11 51° 54% - - 35° 62.3° 42.3° - - 1010.0
4/28 9:30pm 46 7 G 14 52° 50% - - 34° 62.3° 42.3° - - 1010.0
4/28 9:20pm 77 5 G 11 51° 53% - - 35° 62.3° 42.3° - - 1010.0
4/28 9:10pm 356 5 G 16 51° 55% - - 36° 62.3° 42.3° - - 1010.0
4/28 9:00pm 279 2 G 6 51° 56% - - 36° 62.3° 42.3° - - 1010.0
4/28 8:50pm 290 2 G 12 52° 54% - - 36° 62.3° 42.3° - - 1010.0
4/28 8:40pm 274 2 G 7 51° 54% - - 35° 62.3° 42.3° - - 1010.0
4/28 8:30pm 281 2 G 6 51° 54% - - 35° 62.3° 42.3° - - 1009.0
4/28 8:20pm 279 3 G 8 52° 51% - - 34° 62.3° 42.3° - - 1009.0
4/28 8:10pm 275 5 G 11 52° 52% - - 35° 62.3° 42.3° - - 1009.0
4/28 8:00pm 274 7 G 11 51° 57% - - 36° 62.3° 42.3° - - 1009.0
4/28 7:50pm 268 7 G 11 51° 60% - - 38° 62.3° 42.3° - - 1009.0
4/28 7:40pm 267 8 G 12 50° 63% - - 38° 62.3° 42.3° - - 1009.0
4/28 7:30pm 268 8 G 11 49° 64% - - 38° 62.3° 42.3° - - 1009.0
4/28 7:20pm 270 8 G 12 50° 64% - - 38° 62.3° 42.3° - - 1009.0
4/28 7:10pm 268 8 G 11 50° 64% - - 39° 62.3° 42.3° - - 1009.0
4/28 7:00pm 268 9 G 13 51° 65% - - 40° 62.3° 42.3° - - 1008.0
4/28 6:50pm 266 11 G 15 51° 67% - - 41° 62.3° 42.3° - - 1008.0
4/28 6:40pm 267 11 G 15 52° 68% - - 42° 62.3° 42.3° - - 1008.0
4/28 6:30pm 260 12 G 17 52° 68% - - 42° 62.3° 42.3° - - 1008.0
4/28 6:20pm 257 13 G 18 53° 67% - - 43° 62.3° 42.3° - - 1007.0
4/28 6:10pm 267 10 G 16 54° 68% - - 44° 62.3° 42.3° - - 1007.0
4/28 6:00pm 262 12 G 18 54° 68% - - 44° 62.3° 42.3° - - 1007.0